sensor_id;sensor_type;location;lat;lon;timestamp;P1;durP1;ratioP1;P2;durP2;ratioP2
6356;SDS011;3211;53.452;-2.264;2022-09-03T00:01:10;6.40;;;3.70;;
6356;SDS011;3211;53.452;-2.264;2022-09-03T00:04:01;3.90;;;2.43;;
6356;SDS011;3211;53.452;-2.264;2022-09-03T00:06:56;5.87;;;3.10;;
6356;SDS011;3211;53.452;-2.264;2022-09-03T00:09:45;4.93;;;2.93;;
6356;SDS011;3211;53.452;-2.264;2022-09-03T00:12:31;4.50;;;3.50;;
6356;SDS011;3211;53.452;-2.264;2022-09-03T00:15:20;4.40;;;3.47;;
6356;SDS011;3211;53.452;-2.264;2022-09-03T00:18:04;3.83;;;2.90;;
6356;SDS011;3211;53.452;-2.264;2022-09-03T00:20:50;8.97;;;3.60;;
6356;SDS011;3211;53.452;-2.264;2022-09-03T00:23:42;5.27;;;3.50;;
6356;SDS011;3211;53.452;-2.264;2022-09-03T00:26:27;5.13;;;3.10;;
6356;SDS011;3211;53.452;-2.264;2022-09-03T00:29:14;5.73;;;3.50;;
6356;SDS011;3211;53.452;-2.264;2022-09-03T00:32:01;4.40;;;3.00;;
6356;SDS011;3211;53.452;-2.264;2022-09-03T00:34:50;5.47;;;3.90;;
6356;SDS011;3211;53.452;-2.264;2022-09-03T00:37:35;7.93;;;3.83;;
6356;SDS011;3211;53.452;-2.264;2022-09-03T00:40:21;4.10;;;3.63;;
6356;SDS011;3211;53.452;-2.264;2022-09-03T00:43:18;11.13;;;3.90;;
6356;SDS011;3211;53.452;-2.264;2022-09-03T00:46:05;8.40;;;3.80;;
6356;SDS011;3211;53.452;-2.264;2022-09-03T00:49:08;4.13;;;3.67;;
6356;SDS011;3211;53.452;-2.264;2022-09-03T00:52:12;5.93;;;4.00;;
6356;SDS011;3211;53.452;-2.264;2022-09-03T00:55:02;5.40;;;3.90;;
6356;SDS011;3211;53.452;-2.264;2022-09-03T00:58:01;6.07;;;3.57;;
6356;SDS011;3211;53.452;-2.264;2022-09-03T01:00:52;6.83;;;3.67;;
6356;SDS011;3211;53.452;-2.264;2022-09-03T01:03:39;4.30;;;3.90;;
6356;SDS011;3211;53.452;-2.264;2022-09-03T01:06:32;6.07;;;4.00;;
6356;SDS011;3211;53.452;-2.264;2022-09-03T01:09:28;5.57;;;3.70;;
6356;SDS011;3211;53.452;-2.264;2022-09-03T01:12:26;4.63;;;3.87;;
6356;SDS011;3211;53.452;-2.264;2022-09-03T01:15:16;5.70;;;4.23;;
6356;SDS011;3211;53.452;-2.264;2022-09-03T01:18:06;8.43;;;4.67;;
6356;SDS011;3211;53.452;-2.264;2022-09-03T01:21:06;7.07;;;4.70;;
6356;SDS011;3211;53.452;-2.264;2022-09-03T01:24:16;4.83;;;3.93;;
6356;SDS011;3211;53.452;-2.264;2022-09-03T01:27:25;4.60;;;3.90;;
6356;SDS011;3211;53.452;-2.264;2022-09-03T01:30:19;6.30;;;4.10;;
6356;SDS011;3211;53.452;-2.264;2022-09-03T01:33:04;5.17;;;4.67;;
6356;SDS011;3211;53.452;-2.264;2022-09-03T01:35:55;4.90;;;4.50;;
6356;SDS011;3211;53.452;-2.264;2022-09-03T01:38:43;6.37;;;5.00;;
6356;SDS011;3211;53.452;-2.264;2022-09-03T01:41:33;6.67;;;4.50;;
6356;SDS011;3211;53.452;-2.264;2022-09-03T01:44:59;8.43;;;4.53;;
6356;SDS011;3211;53.452;-2.264;2022-09-03T01:48:05;5.80;;;4.57;;
6356;SDS011;3211;53.452;-2.264;2022-09-03T01:51:05;7.70;;;4.83;;
6356;SDS011;3211;53.452;-2.264;2022-09-03T01:57:36;11.70;;;5.57;;
6356;SDS011;3211;53.452;-2.264;2022-09-03T02:00:25;6.20;;;4.73;;
6356;SDS011;3211;53.452;-2.264;2022-09-03T02:03:12;6.00;;;5.40;;
6356;SDS011;3211;53.452;-2.264;2022-09-03T02:05:55;4.60;;;4.20;;
6356;SDS011;3211;53.452;-2.264;2022-09-03T02:08:41;10.27;;;5.40;;
6356;SDS011;3211;53.452;-2.264;2022-09-03T02:11:22;5.60;;;5.00;;
6356;SDS011;3211;53.452;-2.264;2022-09-03T02:14:05;8.30;;;5.67;;
6356;SDS011;3211;53.452;-2.264;2022-09-03T02:16:47;6.30;;;5.17;;
6356;SDS011;3211;53.452;-2.264;2022-09-03T02:19:35;6.43;;;5.03;;
6356;SDS011;3211;53.452;-2.264;2022-09-03T02:22:18;5.37;;;4.87;;
6356;SDS011;3211;53.452;-2.264;2022-09-03T02:25:00;7.07;;;5.90;;
6356;SDS011;3211;53.452;-2.264;2022-09-03T02:27:42;8.67;;;5.90;;
6356;SDS011;3211;53.452;-2.264;2022-09-03T02:30:26;6.27;;;5.37;;
6356;SDS011;3211;53.452;-2.264;2022-09-03T02:33:08;5.90;;;5.27;;
6356;SDS011;3211;53.452;-2.264;2022-09-03T02:35:55;7.63;;;6.20;;
6356;SDS011;3211;53.452;-2.264;2022-09-03T02:38:39;7.37;;;6.17;;
6356;SDS011;3211;53.452;-2.264;2022-09-03T02:41:22;11.13;;;6.60;;
6356;SDS011;3211;53.452;-2.264;2022-09-03T02:44:07;8.20;;;5.80;;
6356;SDS011;3211;53.452;-2.264;2022-09-03T02:46:56;10.00;;;5.90;;
6356;SDS011;3211;53.452;-2.264;2022-09-03T02:49:39;9.47;;;6.43;;
6356;SDS011;3211;53.452;-2.264;2022-09-03T02:52:26;8.67;;;6.17;;
6356;SDS011;3211;53.452;-2.264;2022-09-03T02:55:08;7.63;;;6.17;;
6356;SDS011;3211;53.452;-2.264;2022-09-03T02:57:50;7.37;;;6.67;;
6356;SDS011;3211;53.452;-2.264;2022-09-03T03:00:32;12.07;;;7.30;;
6356;SDS011;3211;53.452;-2.264;2022-09-03T03:03:19;8.57;;;7.53;;
6356;SDS011;3211;53.452;-2.264;2022-09-03T03:06:01;8.63;;;6.70;;
6356;SDS011;3211;53.452;-2.264;2022-09-03T03:08:47;10.30;;;7.43;;
6356;SDS011;3211;53.452;-2.264;2022-09-03T03:11:30;8.50;;;7.33;;
6356;SDS011;3211;53.452;-2.264;2022-09-03T03:14:12;8.97;;;7.57;;
6356;SDS011;3211;53.452;-2.264;2022-09-03T03:16:54;10.43;;;8.00;;
6356;SDS011;3211;53.452;-2.264;2022-09-03T03:19:36;10.30;;;7.83;;
6356;SDS011;3211;53.452;-2.264;2022-09-03T03:22:18;7.83;;;7.03;;
6356;SDS011;3211;53.452;-2.264;2022-09-03T03:25:01;8.43;;;7.53;;
6356;SDS011;3211;53.452;-2.264;2022-09-03T03:27:44;9.63;;;7.70;;
6356;SDS011;3211;53.452;-2.264;2022-09-03T03:30:30;12.20;;;7.80;;
6356;SDS011;3211;53.452;-2.264;2022-09-03T03:33:13;7.30;;;6.57;;
6356;SDS011;3211;53.452;-2.264;2022-09-03T03:35:55;7.70;;;6.67;;
6356;SDS011;3211;53.452;-2.264;2022-09-03T03:38:37;9.90;;;7.20;;
6356;SDS011;3211;53.452;-2.264;2022-09-03T03:41:21;8.77;;;7.87;;
6356;SDS011;3211;53.452;-2.264;2022-09-03T03:44:05;7.83;;;6.93;;
6356;SDS011;3211;53.452;-2.264;2022-09-03T03:46:48;8.07;;;6.13;;
6356;SDS011;3211;53.452;-2.264;2022-09-03T03:49:30;9.67;;;7.03;;
6356;SDS011;3211;53.452;-2.264;2022-09-03T03:52:12;9.07;;;5.93;;
6356;SDS011;3211;53.452;-2.264;2022-09-03T03:54:54;8.70;;;6.60;;
6356;SDS011;3211;53.452;-2.264;2022-09-03T03:57:41;8.63;;;6.70;;
6356;SDS011;3211;53.452;-2.264;2022-09-03T04:00:23;7.67;;;6.50;;
6356;SDS011;3211;53.452;-2.264;2022-09-03T04:03:05;8.20;;;6.83;;
6356;SDS011;3211;53.452;-2.264;2022-09-03T04:05:53;8.37;;;6.90;;
6356;SDS011;3211;53.452;-2.264;2022-09-03T04:08:40;8.20;;;7.27;;
6356;SDS011;3211;53.452;-2.264;2022-09-03T04:11:23;8.83;;;6.73;;
6356;SDS011;3211;53.452;-2.264;2022-09-03T04:14:07;9.53;;;6.83;;
6356;SDS011;3211;53.452;-2.264;2022-09-03T04:16:49;11.50;;;7.03;;
6356;SDS011;3211;53.452;-2.264;2022-09-03T04:19:35;8.60;;;6.60;;
6356;SDS011;3211;53.452;-2.264;2022-09-03T04:22:17;11.50;;;6.50;;
6356;SDS011;3211;53.452;-2.264;2022-09-03T04:24:59;10.47;;;6.07;;
6356;SDS011;3211;53.452;-2.264;2022-09-03T04:27:41;9.40;;;6.63;;
6356;SDS011;3211;53.452;-2.264;2022-09-03T04:30:28;8.13;;;6.37;;
6356;SDS011;3211;53.452;-2.264;2022-09-03T04:33:10;6.63;;;5.93;;
6356;SDS011;3211;53.452;-2.264;2022-09-03T04:35:52;7.43;;;6.60;;
6356;SDS011;3211;53.452;-2.264;2022-09-03T04:38:44;9.90;;;5.90;;
6356;SDS011;3211;53.452;-2.264;2022-09-03T04:41:28;10.00;;;5.70;;
6356;SDS011;3211;53.452;-2.264;2022-09-03T04:44:11;7.47;;;6.07;;
6356;SDS011;3211;53.452;-2.264;2022-09-03T04:46:54;10.57;;;5.67;;
6356;SDS011;3211;53.452;-2.264;2022-09-03T04:49:36;8.17;;;6.87;;
6356;SDS011;3211;53.452;-2.264;2022-09-03T04:52:19;7.10;;;5.50;;
6356;SDS011;3211;53.452;-2.264;2022-09-03T04:55:01;9.07;;;5.87;;
6356;SDS011;3211;53.452;-2.264;2022-09-03T04:57:43;6.50;;;5.80;;
6356;SDS011;3211;53.452;-2.264;2022-09-03T05:00:25;7.20;;;6.47;;
6356;SDS011;3211;53.452;-2.264;2022-09-03T05:03:08;10.10;;;7.70;;
6356;SDS011;3211;53.452;-2.264;2022-09-03T05:05:51;8.80;;;7.67;;
6356;SDS011;3211;53.452;-2.264;2022-09-03T05:08:34;13.73;;;7.93;;
6356;SDS011;3211;53.452;-2.264;2022-09-03T05:11:16;10.17;;;8.33;;
6356;SDS011;3211;53.452;-2.264;2022-09-03T05:13:59;10.50;;;8.50;;
6356;SDS011;3211;53.452;-2.264;2022-09-03T05:16:41;11.97;;;8.00;;
6356;SDS011;3211;53.452;-2.264;2022-09-03T05:19:24;9.20;;;8.23;;
6356;SDS011;3211;53.452;-2.264;2022-09-03T05:22:06;10.03;;;8.50;;
6356;SDS011;3211;53.452;-2.264;2022-09-03T05:24:48;11.97;;;8.70;;
6356;SDS011;3211;53.452;-2.264;2022-09-03T05:27:30;13.57;;;8.30;;
6356;SDS011;3211;53.452;-2.264;2022-09-03T05:30:12;12.27;;;8.80;;
6356;SDS011;3211;53.452;-2.264;2022-09-03T05:32:55;10.90;;;8.60;;
6356;SDS011;3211;53.452;-2.264;2022-09-03T05:35:38;11.10;;;9.80;;
6356;SDS011;3211;53.452;-2.264;2022-09-03T05:38:20;9.90;;;8.90;;
6356;SDS011;3211;53.452;-2.264;2022-09-03T05:41:03;11.00;;;9.37;;
6356;SDS011;3211;53.452;-2.264;2022-09-03T05:43:47;12.90;;;10.00;;
6356;SDS011;3211;53.452;-2.264;2022-09-03T05:46:35;12.23;;;9.10;;
6356;SDS011;3211;53.452;-2.264;2022-09-03T05:49:17;13.37;;;8.40;;
6356;SDS011;3211;53.452;-2.264;2022-09-03T05:52:00;12.00;;;8.37;;
6356;SDS011;3211;53.452;-2.264;2022-09-03T05:54:43;10.07;;;7.90;;
6356;SDS011;3211;53.452;-2.264;2022-09-03T05:57:26;11.60;;;8.27;;
6356;SDS011;3211;53.452;-2.264;2022-09-03T06:00:09;9.60;;;7.97;;
6356;SDS011;3211;53.452;-2.264;2022-09-03T06:02:52;9.53;;;8.57;;
6356;SDS011;3211;53.452;-2.264;2022-09-03T06:05:34;11.03;;;8.83;;
6356;SDS011;3211;53.452;-2.264;2022-09-03T06:08:17;10.23;;;9.13;;
6356;SDS011;3211;53.452;-2.264;2022-09-03T06:10:59;11.37;;;8.90;;
6356;SDS011;3211;53.452;-2.264;2022-09-03T06:13:43;10.80;;;9.30;;
6356;SDS011;3211;53.452;-2.264;2022-09-03T06:16:25;10.70;;;9.40;;
6356;SDS011;3211;53.452;-2.264;2022-09-03T06:19:08;11.13;;;9.80;;
6356;SDS011;3211;53.452;-2.264;2022-09-03T06:21:50;13.83;;;9.40;;
6356;SDS011;3211;53.452;-2.264;2022-09-03T06:24:33;9.77;;;8.77;;
6356;SDS011;3211;53.452;-2.264;2022-09-03T06:27:15;11.83;;;9.00;;
6356;SDS011;3211;53.452;-2.264;2022-09-03T06:30:00;11.43;;;9.13;;
6356;SDS011;3211;53.452;-2.264;2022-09-03T06:32:42;16.07;;;10.60;;
6356;SDS011;3211;53.452;-2.264;2022-09-03T06:35:25;11.33;;;9.60;;
6356;SDS011;3211;53.452;-2.264;2022-09-03T06:38:06;14.90;;;11.40;;
6356;SDS011;3211;53.452;-2.264;2022-09-03T06:40:53;11.43;;;10.00;;
6356;SDS011;3211;53.452;-2.264;2022-09-03T06:43:36;12.40;;;11.07;;
6356;SDS011;3211;53.452;-2.264;2022-09-03T06:46:20;15.80;;;12.77;;
6356;SDS011;3211;53.452;-2.264;2022-09-03T06:49:03;21.83;;;12.97;;
6356;SDS011;3211;53.452;-2.264;2022-09-03T06:51:45;15.33;;;13.00;;
6356;SDS011;3211;53.452;-2.264;2022-09-03T06:54:27;16.37;;;13.20;;
6356;SDS011;3211;53.452;-2.264;2022-09-03T06:57:10;17.90;;;14.50;;
6356;SDS011;3211;53.452;-2.264;2022-09-03T06:59:52;17.77;;;15.73;;
6356;SDS011;3211;53.452;-2.264;2022-09-03T07:02:34;18.80;;;16.77;;
6356;SDS011;3211;53.452;-2.264;2022-09-03T07:05:16;19.90;;;17.23;;
6356;SDS011;3211;53.452;-2.264;2022-09-03T07:07:58;17.60;;;14.83;;
6356;SDS011;3211;53.452;-2.264;2022-09-03T07:10:44;22.53;;;18.07;;
6356;SDS011;3211;53.452;-2.264;2022-09-03T07:13:28;23.07;;;16.73;;
6356;SDS011;3211;53.452;-2.264;2022-09-03T07:16:11;22.27;;;17.90;;
6356;SDS011;3211;53.452;-2.264;2022-09-03T07:18:54;25.00;;;20.50;;
6356;SDS011;3211;53.452;-2.264;2022-09-03T07:21:37;22.60;;;18.73;;
6356;SDS011;3211;53.452;-2.264;2022-09-03T07:24:20;25.87;;;18.80;;
6356;SDS011;3211;53.452;-2.264;2022-09-03T07:27:02;20.17;;;17.53;;
6356;SDS011;3211;53.452;-2.264;2022-09-03T07:29:47;23.07;;;19.17;;
6356;SDS011;3211;53.452;-2.264;2022-09-03T07:32:29;25.73;;;20.23;;
6356;SDS011;3211;53.452;-2.264;2022-09-03T07:35:11;25.43;;;20.53;;
6356;SDS011;3211;53.452;-2.264;2022-09-03T07:37:53;23.53;;;19.17;;
6356;SDS011;3211;53.452;-2.264;2022-09-03T07:40:35;24.80;;;19.63;;
6356;SDS011;3211;53.452;-2.264;2022-09-03T07:43:18;23.83;;;19.87;;
6356;SDS011;3211;53.452;-2.264;2022-09-03T07:46:02;26.87;;;20.03;;
6356;SDS011;3211;53.452;-2.264;2022-09-03T07:48:45;24.70;;;20.77;;
6356;SDS011;3211;53.452;-2.264;2022-09-03T07:51:28;27.90;;;21.20;;
6356;SDS011;3211;53.452;-2.264;2022-09-03T07:54:12;26.10;;;20.13;;
6356;SDS011;3211;53.452;-2.264;2022-09-03T07:56:54;28.37;;;21.30;;
6356;SDS011;3211;53.452;-2.264;2022-09-03T07:59:36;29.40;;;22.87;;
6356;SDS011;3211;53.452;-2.264;2022-09-03T08:02:19;28.60;;;21.30;;
6356;SDS011;3211;53.452;-2.264;2022-09-03T08:05:01;29.93;;;22.53;;
6356;SDS011;3211;53.452;-2.264;2022-09-03T08:07:43;28.40;;;21.17;;
6356;SDS011;3211;53.452;-2.264;2022-09-03T08:10:25;28.37;;;21.93;;
6356;SDS011;3211;53.452;-2.264;2022-09-03T08:13:10;25.70;;;20.10;;
6356;SDS011;3211;53.452;-2.264;2022-09-03T08:15:54;27.83;;;22.00;;
6356;SDS011;3211;53.452;-2.264;2022-09-03T08:18:39;28.43;;;21.63;;
6356;SDS011;3211;53.452;-2.264;2022-09-03T08:21:22;28.97;;;22.93;;
6356;SDS011;3211;53.452;-2.264;2022-09-03T08:24:05;33.27;;;24.27;;
6356;SDS011;3211;53.452;-2.264;2022-09-03T08:26:47;31.10;;;22.83;;
6356;SDS011;3211;53.452;-2.264;2022-09-03T08:29:29;28.93;;;21.97;;
6356;SDS011;3211;53.452;-2.264;2022-09-03T08:32:11;29.00;;;23.50;;
6356;SDS011;3211;53.452;-2.264;2022-09-03T08:34:54;28.10;;;23.00;;
6356;SDS011;3211;53.452;-2.264;2022-09-03T08:37:36;34.63;;;24.20;;
6356;SDS011;3211;53.452;-2.264;2022-09-03T08:40:19;30.33;;;22.83;;
6356;SDS011;3211;53.452;-2.264;2022-09-03T08:43:05;28.50;;;22.80;;
6356;SDS011;3211;53.452;-2.264;2022-09-03T08:45:52;30.60;;;24.10;;
6356;SDS011;3211;53.452;-2.264;2022-09-03T08:48:35;28.77;;;22.20;;
6356;SDS011;3211;53.452;-2.264;2022-09-03T08:51:19;32.70;;;22.37;;
6356;SDS011;3211;53.452;-2.264;2022-09-03T08:54:06;29.80;;;22.53;;
6356;SDS011;3211;53.452;-2.264;2022-09-03T08:56:50;29.57;;;21.53;;
6356;SDS011;3211;53.452;-2.264;2022-09-03T08:59:34;28.00;;;21.00;;
6356;SDS011;3211;53.452;-2.264;2022-09-03T09:02:17;34.23;;;22.07;;
6356;SDS011;3211;53.452;-2.264;2022-09-03T09:05:08;29.67;;;21.70;;
6356;SDS011;3211;53.452;-2.264;2022-09-03T09:07:58;29.37;;;20.20;;
6356;SDS011;3211;53.452;-2.264;2022-09-03T09:10:48;27.03;;;21.00;;
6356;SDS011;3211;53.452;-2.264;2022-09-03T09:13:40;27.37;;;20.93;;
6356;SDS011;3211;53.452;-2.264;2022-09-03T09:16:31;26.20;;;22.43;;
6356;SDS011;3211;53.452;-2.264;2022-09-03T09:19:23;25.20;;;21.57;;
6356;SDS011;3211;53.452;-2.264;2022-09-03T09:22:17;26.20;;;20.83;;
6356;SDS011;3211;53.452;-2.264;2022-09-03T09:25:10;23.23;;;20.00;;
6356;SDS011;3211;53.452;-2.264;2022-09-03T09:27:55;23.87;;;17.73;;
6356;SDS011;3211;53.452;-2.264;2022-09-03T09:30:40;22.10;;;17.67;;
6356;SDS011;3211;53.452;-2.264;2022-09-03T09:33:23;21.67;;;16.63;;
6356;SDS011;3211;53.452;-2.264;2022-09-03T09:36:05;19.43;;;17.30;;
6356;SDS011;3211;53.452;-2.264;2022-09-03T09:38:50;16.90;;;14.87;;
6356;SDS011;3211;53.452;-2.264;2022-09-03T09:41:34;17.00;;;15.20;;
6356;SDS011;3211;53.452;-2.264;2022-09-03T09:44:19;14.47;;;12.97;;
6356;SDS011;3211;53.452;-2.264;2022-09-03T09:47:02;16.23;;;14.00;;
6356;SDS011;3211;53.452;-2.264;2022-09-03T09:49:50;15.23;;;12.87;;
6356;SDS011;3211;53.452;-2.264;2022-09-03T09:52:33;14.03;;;12.63;;
6356;SDS011;3211;53.452;-2.264;2022-09-03T09:55:16;12.87;;;11.47;;
6356;SDS011;3211;53.452;-2.264;2022-09-03T09:58:07;11.73;;;10.63;;
6356;SDS011;3211;53.452;-2.264;2022-09-03T10:00:54;11.63;;;9.67;;
6356;SDS011;3211;53.452;-2.264;2022-09-03T10:03:39;12.63;;;11.27;;
6356;SDS011;3211;53.452;-2.264;2022-09-03T10:06:29;20.90;;;11.77;;
6356;SDS011;3211;53.452;-2.264;2022-09-03T10:09:30;10.20;;;9.10;;
6356;SDS011;3211;53.452;-2.264;2022-09-03T10:12:13;11.80;;;8.30;;
6356;SDS011;3211;53.452;-2.264;2022-09-03T10:15:10;8.87;;;7.13;;
6356;SDS011;3211;53.452;-2.264;2022-09-03T10:17:59;12.13;;;6.80;;
6356;SDS011;3211;53.452;-2.264;2022-09-03T10:20:47;10.17;;;7.40;;
6356;SDS011;3211;53.452;-2.264;2022-09-03T10:23:39;8.00;;;6.17;;
6356;SDS011;3211;53.452;-2.264;2022-09-03T10:26:30;7.27;;;6.57;;
6356;SDS011;3211;53.452;-2.264;2022-09-03T10:29:14;6.70;;;6.00;;
6356;SDS011;3211;53.452;-2.264;2022-09-03T10:32:02;10.33;;;7.70;;
6356;SDS011;3211;53.452;-2.264;2022-09-03T10:34:59;9.77;;;5.67;;
6356;SDS011;3211;53.452;-2.264;2022-09-03T10:37:49;5.70;;;5.20;;
6356;SDS011;3211;53.452;-2.264;2022-09-03T10:40:43;8.63;;;6.37;;
6356;SDS011;3211;53.452;-2.264;2022-09-03T10:43:40;8.10;;;6.00;;
6356;SDS011;3211;53.452;-2.264;2022-09-03T10:46:35;6.57;;;5.97;;
6356;SDS011;3211;53.452;-2.264;2022-09-03T10:49:31;6.43;;;5.70;;
6356;SDS011;3211;53.452;-2.264;2022-09-03T10:52:26;11.17;;;5.90;;
6356;SDS011;3211;53.452;-2.264;2022-09-03T10:55:13;7.60;;;5.60;;
6356;SDS011;3211;53.452;-2.264;2022-09-03T10:58:02;5.87;;;4.47;;
6356;SDS011;3211;53.452;-2.264;2022-09-03T11:00:53;5.40;;;4.90;;
6356;SDS011;3211;53.452;-2.264;2022-09-03T11:03:44;6.73;;;4.50;;
6356;SDS011;3211;53.452;-2.264;2022-09-03T11:06:33;5.93;;;4.53;;
6356;SDS011;3211;53.452;-2.264;2022-09-03T11:09:23;8.07;;;4.63;;
6356;SDS011;3211;53.452;-2.264;2022-09-03T11:12:10;5.70;;;5.10;;
6356;SDS011;3211;53.452;-2.264;2022-09-03T11:15:02;5.80;;;5.03;;
6356;SDS011;3211;53.452;-2.264;2022-09-03T11:17:48;7.00;;;5.57;;
6356;SDS011;3211;53.452;-2.264;2022-09-03T11:20:35;7.50;;;6.47;;
6356;SDS011;3211;53.452;-2.264;2022-09-03T11:23:20;5.17;;;4.57;;
6356;SDS011;3211;53.452;-2.264;2022-09-03T11:26:07;7.73;;;5.13;;
6356;SDS011;3211;53.452;-2.264;2022-09-03T11:28:53;5.80;;;5.23;;
6356;SDS011;3211;53.452;-2.264;2022-09-03T11:31:48;5.07;;;4.13;;
6356;SDS011;3211;53.452;-2.264;2022-09-03T11:34:44;7.77;;;4.50;;
6356;SDS011;3211;53.452;-2.264;2022-09-03T11:37:28;7.10;;;4.80;;
6356;SDS011;3211;53.452;-2.264;2022-09-03T11:40:13;6.53;;;4.53;;
6356;SDS011;3211;53.452;-2.264;2022-09-03T11:43:05;4.60;;;4.10;;
6356;SDS011;3211;53.452;-2.264;2022-09-03T11:46:00;6.30;;;4.60;;
6356;SDS011;3211;53.452;-2.264;2022-09-03T11:48:44;7.53;;;4.83;;
6356;SDS011;3211;53.452;-2.264;2022-09-03T11:51:31;6.07;;;5.50;;
6356;SDS011;3211;53.452;-2.264;2022-09-03T11:54:23;8.07;;;6.00;;
6356;SDS011;3211;53.452;-2.264;2022-09-03T11:57:10;6.90;;;5.40;;
6356;SDS011;3211;53.452;-2.264;2022-09-03T11:59:53;8.50;;;5.83;;
6356;SDS011;3211;53.452;-2.264;2022-09-03T12:02:47;5.50;;;4.83;;
6356;SDS011;3211;53.452;-2.264;2022-09-03T12:05:32;6.90;;;5.57;;
6356;SDS011;3211;53.452;-2.264;2022-09-03T12:11:38;7.97;;;5.23;;
6356;SDS011;3211;53.452;-2.264;2022-09-03T12:14:31;7.87;;;5.60;;
6356;SDS011;3211;53.452;-2.264;2022-09-03T12:17:21;6.07;;;4.40;;
6356;SDS011;3211;53.452;-2.264;2022-09-03T12:20:10;5.07;;;3.80;;
6356;SDS011;3211;53.452;-2.264;2022-09-03T12:22:54;4.37;;;3.73;;
6356;SDS011;3211;53.452;-2.264;2022-09-03T12:25:41;5.30;;;4.10;;
6356;SDS011;3211;53.452;-2.264;2022-09-03T12:28:27;5.83;;;3.30;;
6356;SDS011;3211;53.452;-2.264;2022-09-03T12:31:17;5.60;;;3.60;;
6356;SDS011;3211;53.452;-2.264;2022-09-03T12:34:02;6.20;;;3.53;;
6356;SDS011;3211;53.452;-2.264;2022-09-03T12:36:51;5.07;;;3.07;;
6356;SDS011;3211;53.452;-2.264;2022-09-03T12:39:35;3.40;;;3.10;;
6356;SDS011;3211;53.452;-2.264;2022-09-03T12:42:18;4.43;;;3.67;;
6356;SDS011;3211;53.452;-2.264;2022-09-03T12:45:04;5.33;;;3.03;;
6356;SDS011;3211;53.452;-2.264;2022-09-03T12:47:49;3.67;;;3.00;;
6356;SDS011;3211;53.452;-2.264;2022-09-03T12:50:32;4.00;;;3.20;;
6356;SDS011;3211;53.452;-2.264;2022-09-03T12:53:15;4.50;;;3.10;;
6356;SDS011;3211;53.452;-2.264;2022-09-03T12:56:01;3.70;;;2.87;;
6356;SDS011;3211;53.452;-2.264;2022-09-03T12:58:46;4.63;;;2.70;;
6356;SDS011;3211;53.452;-2.264;2022-09-03T13:01:32;4.43;;;3.23;;
6356;SDS011;3211;53.452;-2.264;2022-09-03T13:04:21;2.50;;;2.30;;
6356;SDS011;3211;53.452;-2.264;2022-09-03T13:07:07;3.50;;;3.20;;
6356;SDS011;3211;53.452;-2.264;2022-09-03T13:09:57;3.10;;;2.50;;
6356;SDS011;3211;53.452;-2.264;2022-09-03T13:12:45;2.47;;;2.27;;
6356;SDS011;3211;53.452;-2.264;2022-09-03T13:15:29;2.63;;;2.43;;
6356;SDS011;3211;53.452;-2.264;2022-09-03T13:18:22;4.33;;;2.87;;
6356;SDS011;3211;53.452;-2.264;2022-09-03T13:21:12;2.87;;;2.67;;
6356;SDS011;3211;53.452;-2.264;2022-09-03T13:24:02;3.10;;;2.60;;
6356;SDS011;3211;53.452;-2.264;2022-09-03T13:26:57;3.03;;;2.70;;
6356;SDS011;3211;53.452;-2.264;2022-09-03T13:29:52;3.40;;;2.80;;
6356;SDS011;3211;53.452;-2.264;2022-09-03T13:32:51;3.30;;;3.00;;
6356;SDS011;3211;53.452;-2.264;2022-09-03T13:35:41;3.60;;;2.97;;
6356;SDS011;3211;53.452;-2.264;2022-09-03T13:38:31;3.87;;;3.07;;
6356;SDS011;3211;53.452;-2.264;2022-09-03T13:41:19;3.87;;;2.87;;
6356;SDS011;3211;53.452;-2.264;2022-09-03T13:44:15;5.23;;;3.30;;
6356;SDS011;3211;53.452;-2.264;2022-09-03T13:47:04;2.90;;;2.70;;
6356;SDS011;3211;53.452;-2.264;2022-09-03T13:49:54;3.70;;;2.80;;
6356;SDS011;3211;53.452;-2.264;2022-09-03T13:53:00;3.10;;;2.83;;
6356;SDS011;3211;53.452;-2.264;2022-09-03T13:55:48;3.00;;;2.70;;
6356;SDS011;3211;53.452;-2.264;2022-09-03T13:58:36;3.70;;;2.57;;
6356;SDS011;3211;53.452;-2.264;2022-09-03T14:01:26;3.40;;;2.50;;
6356;SDS011;3211;53.452;-2.264;2022-09-03T14:04:24;3.37;;;2.63;;
6356;SDS011;3211;53.452;-2.264;2022-09-03T14:07:16;7.97;;;4.17;;
6356;SDS011;3211;53.452;-2.264;2022-09-03T14:10:03;3.27;;;2.97;;
6356;SDS011;3211;53.452;-2.264;2022-09-03T14:13:03;3.10;;;2.80;;
6356;SDS011;3211;53.452;-2.264;2022-09-03T14:15:55;3.37;;;2.97;;
6356;SDS011;3211;53.452;-2.264;2022-09-03T14:18:48;4.20;;;2.70;;
6356;SDS011;3211;53.452;-2.264;2022-09-03T14:21:38;3.43;;;2.90;;
6356;SDS011;3211;53.452;-2.264;2022-09-03T14:24:29;4.53;;;2.97;;
6356;SDS011;3211;53.452;-2.264;2022-09-03T14:27:22;2.97;;;2.73;;
6356;SDS011;3211;53.452;-2.264;2022-09-03T14:30:17;4.03;;;2.70;;
6356;SDS011;3211;53.452;-2.264;2022-09-03T14:33:07;3.00;;;2.70;;
6356;SDS011;3211;53.452;-2.264;2022-09-03T14:35:59;3.67;;;2.77;;
6356;SDS011;3211;53.452;-2.264;2022-09-03T14:38:53;5.60;;;2.60;;
6356;SDS011;3211;53.452;-2.264;2022-09-03T14:41:48;6.90;;;2.70;;
6356;SDS011;3211;53.452;-2.264;2022-09-03T14:44:50;5.27;;;2.70;;
6356;SDS011;3211;53.452;-2.264;2022-09-03T14:47:48;2.97;;;2.67;;
6356;SDS011;3211;53.452;-2.264;2022-09-03T14:50:49;3.37;;;2.70;;
6356;SDS011;3211;53.452;-2.264;2022-09-03T14:53:55;3.10;;;2.80;;
6356;SDS011;3211;53.452;-2.264;2022-09-03T14:56:52;3.30;;;3.00;;
6356;SDS011;3211;53.452;-2.264;2022-09-03T14:59:55;3.60;;;2.80;;
6356;SDS011;3211;53.452;-2.264;2022-09-03T15:02:51;2.70;;;2.50;;
6356;SDS011;3211;53.452;-2.264;2022-09-03T15:09:20;4.43;;;2.90;;
6356;SDS011;3211;53.452;-2.264;2022-09-03T15:12:09;3.30;;;2.60;;
6356;SDS011;3211;53.452;-2.264;2022-09-03T15:14:59;3.70;;;2.83;;
6356;SDS011;3211;53.452;-2.264;2022-09-03T15:17:50;3.27;;;2.80;;
6356;SDS011;3211;53.452;-2.264;2022-09-03T15:20:47;2.77;;;2.57;;
6356;SDS011;3211;53.452;-2.264;2022-09-03T15:23:39;3.50;;;2.53;;
6356;SDS011;3211;53.452;-2.264;2022-09-03T15:26:38;3.50;;;2.50;;
6356;SDS011;3211;53.452;-2.264;2022-09-03T15:29:35;3.00;;;2.70;;
6356;SDS011;3211;53.452;-2.264;2022-09-03T15:32:35;3.50;;;2.50;;
6356;SDS011;3211;53.452;-2.264;2022-09-03T15:38:46;2.97;;;2.57;;
6356;SDS011;3211;53.452;-2.264;2022-09-03T15:41:39;2.60;;;2.40;;
6356;SDS011;3211;53.452;-2.264;2022-09-03T15:44:25;2.90;;;2.30;;
6356;SDS011;3211;53.452;-2.264;2022-09-03T15:47:27;4.47;;;3.00;;
6356;SDS011;3211;53.452;-2.264;2022-09-03T15:50:25;2.47;;;2.27;;
6356;SDS011;3211;53.452;-2.264;2022-09-03T15:53:18;3.60;;;2.37;;
6356;SDS011;3211;53.452;-2.264;2022-09-03T15:56:12;2.83;;;2.57;;
6356;SDS011;3211;53.452;-2.264;2022-09-03T15:59:00;3.40;;;2.70;;
6356;SDS011;3211;53.452;-2.264;2022-09-03T16:01:50;3.43;;;2.50;;
6356;SDS011;3211;53.452;-2.264;2022-09-03T16:04:42;3.73;;;2.60;;
6356;SDS011;3211;53.452;-2.264;2022-09-03T16:07:44;2.67;;;2.47;;
6356;SDS011;3211;53.452;-2.264;2022-09-03T16:10:51;2.90;;;2.60;;
6356;SDS011;3211;53.452;-2.264;2022-09-03T16:13:48;2.67;;;2.37;;
6356;SDS011;3211;53.452;-2.264;2022-09-03T16:16:46;2.50;;;2.30;;
6356;SDS011;3211;53.452;-2.264;2022-09-03T16:19:39;2.50;;;2.30;;
6356;SDS011;3211;53.452;-2.264;2022-09-03T16:22:26;3.60;;;2.80;;
6356;SDS011;3211;53.452;-2.264;2022-09-03T16:25:11;3.63;;;3.33;;
6356;SDS011;3211;53.452;-2.264;2022-09-03T16:27:59;2.77;;;2.57;;
6356;SDS011;3211;53.452;-2.264;2022-09-03T16:30:50;3.87;;;3.03;;
6356;SDS011;3211;53.452;-2.264;2022-09-03T16:33:45;3.10;;;2.80;;
6356;SDS011;3211;53.452;-2.264;2022-09-03T16:36:38;3.93;;;3.00;;
6356;SDS011;3211;53.452;-2.264;2022-09-03T16:39:31;4.87;;;3.10;;
6356;SDS011;3211;53.452;-2.264;2022-09-03T16:42:25;7.53;;;3.17;;
6356;SDS011;3211;53.452;-2.264;2022-09-03T16:45:16;3.97;;;3.03;;
6356;SDS011;3211;53.452;-2.264;2022-09-03T16:48:09;3.13;;;2.77;;
6356;SDS011;3211;53.452;-2.264;2022-09-03T16:51:05;4.10;;;3.40;;
6356;SDS011;3211;53.452;-2.264;2022-09-03T16:54:04;3.33;;;3.03;;
6356;SDS011;3211;53.452;-2.264;2022-09-03T16:56:58;3.53;;;3.20;;
6356;SDS011;3211;53.452;-2.264;2022-09-03T16:59:58;4.40;;;3.80;;
6356;SDS011;3211;53.452;-2.264;2022-09-03T17:03:00;2.93;;;2.73;;
6356;SDS011;3211;53.452;-2.264;2022-09-03T17:09:14;3.97;;;3.50;;
6356;SDS011;3211;53.452;-2.264;2022-09-03T17:12:07;3.43;;;3.00;;
6356;SDS011;3211;53.452;-2.264;2022-09-03T17:15:08;3.73;;;3.40;;